Tuesday, January 22, 2019, 4:50 PM EST
Back to Local

KLEB, Lebanon Municipal Airport

Location: Lebanon, NH, United States Lat: 43.633
Local Time: 4:50 PM EST (21:50 GMT) Lon: -72.3
Time Zone: US/Eastern Elev: 597 ft

Show me the last for .
Show Decoded

2019-01-22 15:53 METAR KLEB 222053Z 03005KT 10SM CLR M08/M21 A3049 RMK AO2 SLP345 T10781211 50004
                 =
2019-01-22 14:53 METAR KLEB 221953Z 35007KT 10SM CLR M06/M22 A3051 RMK AO2 SLP351 T10611222 =
2019-01-22 13:53 METAR KLEB 221853Z 31007KT 10SM CLR M07/M22 A3048 RMK AO2 SLP342 T10671222 =
2019-01-22 13:47 METAR KLEB 221847Z 31007KT 5SM HZ CLR M07/M22 A3048 RMK AO2 =
2019-01-22 13:38 METAR KLEB 221838Z VRB06KT 1 3/4SM HZ FEW001 M07/M20 A3048 RMK AO2 T10721200 =
2019-01-22 12:53 METAR KLEB 221753Z 33005KT 10SM CLR M08/M23 A3048 RMK AO2 SLP342 T10781228 11078
                 21256 58010 =
2019-01-22 11:53 METAR KLEB 221653Z 00000KT 10SM CLR M09/M23 A3050 RMK AO2 SLP348 T10941228 =
2019-01-22 10:53 METAR KLEB 221553Z 00000KT 10SM CLR M12/M23 A3051 RMK AO2 SLP352 T11171228 =
2019-01-22 09:53 METAR KLEB 221453Z 00000KT 10SM CLR M15/M24 A3051 RMK AO2 SLP355 T11501244 51027
                 =
2019-01-22 08:53 METAR KLEB 221353Z 32004KT 10SM CLR M22/M27 A3048 RMK AO2 SLP350 T12221267 =
2019-01-22 07:53 METAR KLEB 221253Z 00000KT 10SM CLR M26/M29 A3046 RMK AO2 SLP344 T12561294 =
2019-01-22 06:53 METAR KLEB 221153Z 00000KT 10SM CLR M22/M27 A3043 RMK AO2 SLP331 T12171267 11167
                 21222 53043 =
2019-01-22 05:53 METAR KLEB 221053Z AUTO VRB03KT 10SM CLR M21/M27 A3037 RMK AO2 SLP310 T12111267
                 =
2019-01-22 04:53 METAR KLEB 220953Z AUTO 34007KT 10SM CLR M17/M25 A3034 RMK AO2 SLP297 T11671250
                 =
2019-01-22 03:53 METAR KLEB 220853Z AUTO 35007KT 10SM CLR M17/M25 A3030 RMK AO2 SLP285 T11671250
                 51028 =
2019-01-22 02:53 METAR KLEB 220753Z AUTO 33010KT 10SM CLR M17/M25 A3027 RMK AO2 SLP275 T11671250
                 =
2019-01-22 01:53 METAR KLEB 220653Z AUTO 35010KT 10SM CLR M17/M24 A3025 RMK AO2 SLP267 T11671244
                 =
2019-01-22 00:53 METAR KLEB 220553Z AUTO 34007KT 10SM CLR M17/M25 A3022 RMK AO2 SLP257 60000
                 T11671250 11156 21183 51043 =
2019-01-21 23:53 METAR KLEB 220453Z AUTO VRB03KT 10SM CLR M17/M25 A3019 RMK AO2 SLP247 T11671250
                 411561194 =
2019-01-21 22:53 METAR KLEB 220353Z AUTO 34008KT 10SM CLR M17/M26 A3015 RMK AO2 SLP233 T11671256
                 =
2019-01-21 21:53 METAR KLEB 220253Z 35010G24KT 9SM CLR M17/M25 A3009 RMK AO2 SLP214 60000
                 T11671250 53024 =
2019-01-21 20:53 METAR KLEB 220153Z 33010G18KT 10SM OVC110 M16/M26 A3007 RMK AO2 SLP205 T11611256
                 =
2019-01-21 19:53 METAR KLEB 220053Z 33008KT 230V130 10SM FEW047 SCT055 OVC075 M16/M24 A3004 RMK
                 AO2 SNE21 SLP198 P0000 T11611239 =
2019-01-21 18:53 METAR KLEB 212353Z VRB05KT 4SM -SN OVC041 M17/M23 A3002 RMK AO2 SNB09 SLP190
                 P0000 60000 T11671233 11167 21172 53041 =
2019-01-21 18:02 METAR KLEB 212302Z 34007KT 6SM HZ BKN032 OVC039 M17/M24 A2999 RMK AO2 T11721239
                 =
2019-01-21 17:53 METAR KLEB 212253Z 33007KT 6SM HZ BKN029 OVC037 M17/M23 A2998 RMK AO2 SNE44
                 SLP176 P0000 T11721233 =
2019-01-21 17:43 METAR KLEB 212243Z 34007G17KT 4SM -SN BKN025 OVC037 M17/M23 A2997 RMK AO2 P0000
                 T11721228 =
2019-01-21 17:28 METAR KLEB 212228Z 32005KT 2SM -SN OVC019 M17/M22 A2996 RMK AO2 P0000 T11721222
                 =
2019-01-21 16:53 METAR KLEB 212153Z 33008G14KT 1 3/4SM -SN OVC019 M17/M22 A2993 RMK AO2 SLP159
                 P0000 T11721222 =

Support USWX by starting your Amazon purchase here.